createdAt,value
2022-10-28T00:00:52.319Z,7.18
2022-10-28T00:03:19.398Z,6.90
2022-10-28T00:05:46.480Z,6.60
2022-10-28T00:08:13.546Z,8.35
2022-10-28T00:10:40.312Z,6.68
2022-10-28T00:13:07.280Z,7.82
2022-10-28T00:15:35.631Z,7.32
2022-10-28T00:18:02.514Z,7.53
2022-10-28T00:20:31.929Z,7.22
2022-10-28T00:22:58.798Z,7.25
2022-10-28T00:25:25.632Z,7.55
2022-10-28T00:27:53.048Z,7.53
2022-10-28T00:30:20.343Z,7.07
2022-10-28T00:32:47.245Z,7.20
2022-10-28T00:35:14.145Z,7.50
2022-10-28T00:37:41.016Z,7.50
2022-10-28T00:40:08.385Z,6.63
2022-10-28T00:42:35.271Z,7.95
2022-10-28T00:45:03.392Z,7.22
2022-10-28T00:47:39.470Z,7.13
2022-10-28T00:50:15.700Z,7.13
2022-10-28T00:52:46.052Z,6.70
2022-10-28T00:55:15.756Z,6.95
2022-10-28T00:57:43.762Z,7.10
2022-10-28T01:00:11.498Z,7.57
2022-10-28T01:02:45.344Z,6.70
2022-10-28T01:05:15.391Z,6.88
2022-10-28T01:07:42.907Z,6.70
2022-10-28T01:10:10.707Z,7.13
2022-10-28T01:13:07.753Z,6.38
2022-10-28T01:15:56.799Z,6.18
2022-10-28T01:18:40.812Z,6.78
2022-10-28T01:21:34.892Z,6.78
2022-10-28T01:24:25.289Z,5.80
2022-10-28T01:27:19.756Z,6.15
2022-10-28T01:30:08.598Z,6.93
2022-10-28T01:32:52.298Z,6.28
2022-10-28T01:35:37.283Z,6.40
2022-10-28T01:38:19.581Z,7.20
2022-10-28T01:41:01.146Z,6.13
2022-10-28T01:43:34.318Z,6.22
2022-10-28T01:46:17.338Z,6.32
2022-10-28T01:48:53.879Z,7.03
2022-10-28T01:51:26.195Z,6.40
2022-10-28T01:53:56.417Z,6.82
2022-10-28T01:56:28.371Z,5.75
2022-10-28T01:58:59.153Z,6.03
2022-10-28T02:01:27.972Z,6.20
2022-10-28T02:03:55.394Z,5.75
2022-10-28T02:06:27.201Z,6.38
2022-10-28T02:09:20.112Z,6.95
2022-10-28T02:12:19.905Z,6.50
2022-10-28T02:15:26.080Z,6.38
2022-10-28T02:18:11.865Z,5.88
2022-10-28T02:21:12.068Z,6.38
2022-10-28T02:24:08.583Z,6.35
2022-10-28T02:26:42.037Z,6.85
2022-10-28T02:29:17.580Z,6.95
2022-10-28T02:34:24.460Z,6.75
2022-10-28T02:36:54.904Z,6.65
2022-10-28T02:39:28.333Z,7.45
2022-10-28T02:42:06.249Z,6.45
2022-10-28T02:44:38.706Z,8.00
2022-10-28T02:47:11.549Z,7.00
2022-10-28T02:49:41.543Z,6.78
2022-10-28T02:52:09.220Z,6.97
2022-10-28T02:54:41.898Z,7.75
2022-10-28T02:57:23.480Z,7.63
2022-10-28T02:59:58.533Z,7.72
2022-10-28T03:02:26.423Z,7.40
2022-10-28T03:04:54.112Z,7.53
2022-10-28T03:07:21.321Z,7.47
2022-10-28T03:09:48.169Z,8.10
2022-10-28T03:12:15.233Z,7.70
2022-10-28T03:14:42.506Z,7.57
2022-10-28T03:17:09.484Z,7.10
2022-10-28T03:19:36.241Z,7.55
2022-10-28T03:22:03.284Z,7.53
2022-10-28T03:24:30.119Z,7.78
2022-10-28T03:26:57.076Z,8.10
2022-10-28T03:29:23.913Z,7.50
2022-10-28T03:31:50.798Z,8.27
2022-10-28T03:34:17.756Z,8.95
2022-10-28T03:36:44.750Z,8.05
2022-10-28T03:39:14.567Z,8.63
2022-10-28T03:41:41.425Z,8.68
2022-10-28T03:44:08.308Z,8.27
2022-10-28T03:46:36.138Z,8.52
2022-10-28T03:49:03.549Z,8.80
2022-10-28T03:51:30.617Z,8.90
2022-10-28T03:53:57.722Z,8.23
2022-10-28T03:56:24.815Z,8.15
2022-10-28T04:01:19.472Z,8.90
2022-10-28T04:03:46.369Z,8.45
2022-10-28T04:06:13.421Z,8.07
2022-10-28T04:08:40.178Z,8.20
2022-10-28T04:11:07.034Z,8.23
2022-10-28T04:13:34.236Z,8.30
2022-10-28T04:16:01.977Z,8.18
2022-10-28T04:18:28.911Z,8.23
2022-10-28T04:20:55.955Z,8.38
2022-10-28T04:23:23.058Z,8.80
2022-10-28T04:25:54.378Z,7.68
2022-10-28T04:28:24.275Z,8.38
2022-10-28T04:30:51.370Z,8.40
2022-10-28T04:33:18.452Z,8.32
2022-10-28T04:35:45.542Z,8.88
2022-10-28T04:38:14.234Z,9.20
2022-10-28T04:40:41.442Z,8.27
2022-10-28T04:43:10.074Z,9.45
2022-10-28T04:45:38.139Z,8.50
2022-10-28T04:48:05.135Z,8.18
2022-10-28T04:50:32.288Z,9.13
2022-10-28T04:53:00.025Z,8.50
2022-10-28T04:55:27.017Z,7.72
2022-10-28T04:57:55.774Z,8.45
2022-10-28T05:00:23.618Z,8.98
2022-10-28T05:02:50.564Z,8.25
2022-10-28T05:05:17.959Z,8.43
2022-10-28T05:07:45.021Z,8.30
2022-10-28T05:10:15.405Z,9.13
2022-10-28T05:12:43.280Z,8.25
2022-10-28T05:15:11.364Z,8.65
2022-10-28T05:17:48.173Z,8.02
2022-10-28T05:20:17.189Z,8.98
2022-10-28T05:22:48.571Z,8.35
2022-10-28T05:25:15.736Z,8.38
2022-10-28T05:27:43.515Z,8.45
2022-10-28T05:30:11.442Z,8.05
2022-10-28T05:32:38.359Z,8.30
2022-10-28T05:35:05.605Z,7.88
2022-10-28T05:37:32.475Z,8.93
2022-10-28T05:39:59.317Z,7.90
2022-10-28T05:42:26.222Z,8.45
2022-10-28T05:44:53.091Z,8.32
2022-10-28T05:47:19.857Z,8.55
2022-10-28T05:49:46.682Z,8.27
2022-10-28T05:52:13.476Z,8.05
2022-10-28T05:54:40.310Z,8.18
2022-10-28T05:57:07.105Z,7.85
2022-10-28T05:59:34.227Z,8.65
2022-10-28T06:02:01.072Z,7.68
2022-10-28T06:04:27.963Z,8.05
2022-10-28T06:06:56.251Z,7.65
2022-10-28T06:09:23.068Z,7.72
2022-10-28T06:11:48.421Z,8.07
2022-10-28T06:14:15.298Z,7.43
2022-10-28T06:16:42.360Z,8.25
2022-10-28T06:19:09.247Z,7.38
2022-10-28T06:21:36.162Z,7.97
2022-10-28T06:24:03.447Z,8.63
2022-10-28T06:26:30.483Z,7.72
2022-10-28T06:28:57.359Z,7.60
2022-10-28T06:31:24.110Z,7.50
2022-10-28T06:33:50.913Z,7.65
2022-10-28T06:36:17.710Z,7.95
2022-10-28T06:38:44.576Z,7.80
2022-10-28T06:41:11.361Z,8.30
2022-10-28T06:43:38.252Z,6.90
2022-10-28T06:46:05.256Z,6.75
2022-10-28T06:48:33.667Z,7.43
2022-10-28T06:51:01.265Z,7.18
2022-10-28T06:53:28.102Z,7.70
2022-10-28T06:55:58.851Z,7.18
2022-10-28T06:58:26.533Z,6.32
2022-10-28T07:00:53.872Z,7.35
2022-10-28T07:03:20.787Z,6.85
2022-10-28T07:05:49.937Z,6.72
2022-10-28T07:08:17.195Z,6.95
2022-10-28T07:10:44.021Z,6.88
2022-10-28T07:13:10.901Z,6.95
2022-10-28T07:15:38.479Z,7.72
2022-10-28T07:18:05.493Z,6.80
2022-10-28T07:20:33.024Z,6.32
2022-10-28T07:23:01.813Z,6.60
2022-10-28T07:25:30.599Z,7.45
2022-10-28T07:27:58.966Z,7.13
2022-10-28T07:30:26.456Z,11.23
2022-10-28T07:32:53.458Z,11.18
2022-10-28T07:35:20.968Z,10.77
2022-10-28T07:37:48.018Z,10.88
2022-10-28T07:40:15.061Z,11.05
2022-10-28T07:42:41.991Z,9.52
2022-10-28T07:45:09.292Z,7.75
2022-10-28T07:47:36.410Z,7.30
2022-10-28T07:50:03.691Z,8.10
2022-10-28T07:52:30.601Z,7.30
2022-10-28T07:54:57.424Z,6.20
2022-10-28T07:57:24.262Z,6.05
2022-10-28T07:59:51.082Z,6.20
2022-10-28T08:02:20.245Z,6.40
2022-10-28T08:04:47.969Z,6.57
2022-10-28T08:07:15.400Z,6.97
2022-10-28T08:09:42.284Z,6.40
2022-10-28T08:12:12.579Z,6.85
2022-10-28T08:14:39.724Z,7.63
2022-10-28T08:17:07.023Z,6.88
2022-10-28T08:19:33.972Z,6.90
2022-10-28T08:22:02.345Z,6.50
2022-10-28T08:24:29.194Z,6.60
2022-10-28T08:26:56.196Z,6.47
2022-10-28T08:29:27.697Z,6.78
2022-10-28T08:31:57.876Z,6.80
2022-10-28T08:34:29.688Z,6.68
2022-10-28T08:36:58.234Z,6.85
2022-10-28T08:39:25.337Z,6.57
2022-10-28T08:42:23.917Z,7.25
2022-10-28T08:45:16.240Z,6.95
2022-10-28T08:48:40.660Z,6.00
2022-10-28T08:51:22.151Z,6.05
2022-10-28T08:54:00.766Z,6.63
2022-10-28T08:56:48.405Z,6.05
2022-10-28T08:59:29.421Z,5.60
2022-10-28T09:02:31.800Z,5.93
2022-10-28T09:05:05.894Z,6.13
2022-10-28T09:07:35.758Z,6.70
2022-10-28T09:10:05.711Z,6.10
2022-10-28T09:12:57.346Z,5.45
2022-10-28T09:15:55.659Z,5.10
2022-10-28T09:18:40.473Z,5.70
2022-10-28T09:21:18.338Z,5.88
2022-10-28T09:23:55.565Z,5.72
2022-10-28T09:26:40.902Z,5.85
2022-10-28T09:29:26.471Z,5.40
2022-10-28T09:32:04.228Z,6.10
2022-10-28T09:34:52.338Z,5.90
2022-10-28T09:37:36.443Z,5.72
2022-10-28T09:40:13.751Z,6.47
2022-10-28T09:42:48.591Z,6.05
2022-10-28T09:45:25.485Z,6.05
2022-10-28T09:48:24.289Z,5.95
2022-10-28T09:50:54.254Z,5.95
2022-10-28T09:53:37.049Z,5.68
2022-10-28T09:56:06.500Z,5.90
2022-10-28T09:58:34.641Z,6.40
2022-10-28T10:01:03.665Z,6.53
2022-10-28T10:03:31.419Z,5.97
2022-10-28T10:06:04.778Z,5.63
2022-10-28T10:08:31.853Z,5.43
2022-10-28T10:11:27.856Z,5.60
2022-10-28T10:13:57.560Z,5.32
2022-10-28T10:16:46.139Z,5.13
2022-10-28T10:19:13.728Z,6.65
2022-10-28T10:21:42.408Z,5.78
2022-10-28T10:24:22.213Z,5.53
2022-10-28T10:26:49.285Z,5.85
2022-10-28T10:29:16.202Z,6.00
2022-10-28T10:31:43.690Z,5.35
2022-10-28T10:34:25.474Z,5.65
2022-10-28T10:36:55.779Z,5.70
2022-10-28T10:39:37.270Z,5.70
2022-10-28T10:42:16.491Z,5.32
2022-10-28T10:44:43.800Z,6.70
2022-10-28T10:47:10.578Z,5.75
2022-10-28T10:49:37.695Z,6.07
2022-10-28T10:52:24.280Z,6.30
2022-10-28T10:55:05.231Z,5.28
2022-10-28T10:57:33.374Z,5.47
2022-10-28T11:00:00.864Z,6.03
2022-10-28T11:02:34.944Z,5.72
2022-10-28T11:05:08.918Z,5.78
2022-10-28T11:07:40.499Z,5.45
2022-10-28T11:10:23.305Z,5.20
2022-10-28T11:12:58.563Z,5.35
2022-10-28T11:15:29.969Z,5.40
2022-10-28T11:18:04.126Z,5.80
2022-10-28T11:20:59.106Z,5.03
2022-10-28T11:23:41.369Z,5.25
2022-10-28T11:26:13.136Z,5.28
2022-10-28T11:28:50.556Z,5.50
2022-10-28T11:31:36.054Z,5.47
2022-10-28T11:34:38.431Z,5.88
2022-10-28T11:37:18.456Z,6.00
2022-10-28T11:39:56.034Z,5.55
2022-10-28T11:42:48.952Z,5.38
2022-10-28T11:45:48.570Z,5.22
2022-10-28T11:48:22.845Z,5.32
2022-10-28T11:51:04.961Z,5.82
2022-10-28T11:53:55.969Z,5.75
2022-10-28T11:56:34.909Z,6.22
2022-10-28T11:59:23.610Z,5.75
2022-10-28T12:02:17.078Z,5.55
2022-10-28T12:05:18.809Z,6.25
2022-10-28T12:08:27.814Z,6.35
2022-10-28T12:11:07.973Z,5.57
2022-10-28T12:13:58.057Z,5.63
2022-10-28T12:16:50.343Z,5.25
2022-10-28T12:19:29.797Z,5.72
2022-10-28T12:22:25.714Z,5.53
2022-10-28T12:24:54.331Z,5.13
2022-10-28T12:27:34.086Z,5.10
2022-10-28T12:30:28.155Z,5.68
2022-10-28T12:33:20.937Z,5.10
2022-10-28T12:35:54.084Z,5.35
2022-10-28T12:38:51.655Z,4.63
2022-10-28T12:41:30.913Z,6.28
2022-10-28T12:44:03.863Z,4.53
2022-10-28T12:49:46.118Z,5.03
2022-10-28T12:52:30.092Z,4.93
2022-10-28T12:55:29.217Z,5.95
2022-10-28T12:58:16.311Z,4.40
2022-10-28T13:00:51.154Z,5.15
2022-10-28T13:03:19.279Z,5.03
2022-10-28T13:05:58.291Z,5.18
2022-10-28T13:08:40.465Z,5.22
2022-10-28T13:11:18.981Z,5.32
2022-10-28T13:14:06.130Z,4.68
2022-10-28T13:16:46.512Z,5.47
2022-10-28T13:19:49.645Z,5.13
2022-10-28T13:22:40.645Z,4.70
2022-10-28T13:25:24.441Z,4.55
2022-10-28T13:27:59.439Z,4.72
2022-10-28T13:30:27.927Z,4.40
2022-10-28T13:33:15.544Z,5.45
2022-10-28T13:35:43.156Z,4.70
2022-10-28T13:38:12.795Z,5.43
2022-10-28T13:40:39.587Z,4.80
2022-10-28T13:43:21.175Z,5.10
2022-10-28T13:45:56.066Z,4.82
2022-10-28T13:48:29.158Z,4.95
2022-10-28T13:51:11.306Z,5.88
2022-10-28T13:53:45.487Z,5.55
2022-10-28T13:56:17.085Z,5.50
2022-10-28T13:58:56.893Z,4.55
2022-10-28T14:01:56.724Z,4.65
2022-10-28T14:04:39.577Z,3.60
2022-10-28T14:07:12.746Z,5.30
2022-10-28T14:09:41.960Z,5.53
2022-10-28T14:12:23.243Z,4.95
2022-10-28T14:15:00.681Z,4.53
2022-10-28T14:17:34.508Z,4.78
2022-10-28T14:20:02.725Z,5.38
2022-10-28T14:22:34.037Z,5.85
2022-10-28T14:25:01.820Z,5.65
2022-10-28T14:27:42.343Z,6.45
2022-10-28T14:30:15.679Z,5.05
2022-10-28T14:32:58.660Z,5.35
2022-10-28T14:35:42.071Z,5.85
2022-10-28T14:38:35.322Z,5.03
2022-10-28T14:41:23.653Z,5.30
2022-10-28T14:43:53.530Z,4.80
2022-10-28T14:46:47.165Z,5.97
2022-10-28T14:49:35.315Z,5.10
2022-10-28T14:52:10.274Z,4.93
2022-10-28T14:54:58.857Z,4.80
2022-10-28T14:57:33.785Z,5.10
2022-10-28T15:02:37.115Z,4.88
2022-10-28T15:05:20.901Z,5.22
2022-10-28T15:07:48.361Z,4.68
2022-10-28T15:10:16.163Z,5.32
2022-10-28T15:12:51.483Z,5.50
2022-10-28T15:15:21.374Z,4.82
2022-10-28T15:17:49.645Z,5.47
2022-10-28T15:20:27.090Z,4.63
2022-10-28T15:23:11.003Z,6.25
2022-10-28T15:25:37.902Z,6.07
2022-10-28T15:28:04.912Z,5.88
2022-10-28T15:30:32.263Z,4.57
2022-10-28T15:33:20.680Z,4.97
2022-10-28T15:35:48.088Z,5.95
2022-10-28T15:38:30.294Z,5.28
2022-10-28T15:40:57.365Z,5.90
2022-10-28T15:43:27.839Z,4.47
2022-10-28T15:46:07.902Z,5.32
2022-10-28T15:48:34.795Z,5.65
2022-10-28T15:51:30.995Z,5.30
2022-10-28T15:54:11.564Z,5.60
2022-10-28T15:56:58.988Z,5.35
2022-10-28T15:59:26.962Z,5.93
2022-10-28T16:01:56.229Z,5.60
2022-10-28T16:04:23.294Z,5.93
2022-10-28T16:06:56.658Z,6.13
2022-10-28T16:09:32.338Z,6.20
2022-10-28T16:12:11.884Z,6.28
2022-10-28T16:14:41.679Z,5.53
2022-10-28T16:17:23.734Z,6.53
2022-10-28T16:19:58.549Z,5.75
2022-10-28T16:22:27.679Z,7.25
2022-10-28T16:24:55.069Z,5.55
2022-10-28T16:27:24.098Z,6.22
2022-10-28T16:29:51.706Z,6.53
2022-10-28T16:32:24.354Z,6.85
2022-10-28T16:34:51.249Z,5.65
2022-10-28T16:37:22.489Z,5.93
2022-10-28T16:39:49.707Z,5.55
2022-10-28T16:42:17.667Z,5.35
2022-10-28T16:44:44.527Z,6.32
2022-10-28T16:47:16.929Z,5.88
2022-10-28T16:49:44.224Z,5.88
2022-10-28T16:52:17.782Z,5.63
2022-10-28T16:54:44.624Z,6.38
2022-10-28T16:57:11.442Z,5.50
2022-10-28T16:59:38.448Z,5.40
2022-10-28T17:02:13.739Z,5.35
2022-10-28T17:07:07.433Z,5.57
2022-10-28T17:09:34.275Z,5.90
2022-10-28T17:12:01.141Z,4.85
2022-10-28T17:14:27.973Z,5.03
2022-10-28T17:16:54.741Z,4.95
2022-10-28T17:19:24.432Z,6.15
2022-10-28T17:21:51.288Z,5.22
2022-10-28T17:24:18.058Z,6.05
2022-10-28T17:26:47.399Z,5.78
2022-10-28T17:29:14.547Z,5.47
2022-10-28T17:31:41.421Z,5.72
2022-10-28T17:34:09.915Z,5.70
2022-10-28T17:36:37.129Z,5.55
2022-10-28T17:39:04.125Z,6.72
2022-10-28T17:41:31.157Z,5.20
2022-10-28T17:43:57.948Z,5.90
2022-10-28T17:46:24.822Z,5.50
2022-10-28T17:48:51.664Z,5.25
2022-10-28T17:51:20.933Z,5.97
2022-10-28T17:53:53.033Z,4.90
2022-10-28T17:56:19.916Z,5.55
2022-10-28T17:58:46.707Z,5.85
2022-10-28T18:01:13.883Z,4.82
2022-10-28T18:03:40.747Z,5.32
2022-10-28T18:06:12.197Z,5.60
2022-10-28T18:08:41.468Z,5.63
2022-10-28T18:11:10.388Z,5.57
2022-10-28T18:13:39.175Z,5.40
2022-10-28T18:16:06.980Z,5.93
2022-10-28T18:18:39.053Z,6.15
2022-10-28T18:21:09.886Z,5.65
2022-10-28T18:23:36.646Z,6.03
2022-10-28T18:26:07.421Z,5.55
2022-10-28T18:28:35.879Z,6.28
2022-10-28T18:31:03.472Z,5.78
2022-10-28T18:33:30.778Z,5.90
2022-10-28T18:36:02.141Z,6.65
2022-10-28T18:38:29.156Z,5.38
2022-10-28T18:40:56.034Z,5.90
2022-10-28T18:43:23.727Z,5.97
2022-10-28T18:45:50.844Z,6.60
2022-10-28T18:48:18.354Z,5.20
2022-10-28T18:50:56.409Z,7.57
2022-10-28T18:53:23.527Z,6.38
2022-10-28T18:55:50.505Z,6.65
2022-10-28T18:58:17.692Z,6.75
2022-10-28T19:00:44.533Z,6.30
2022-10-28T19:03:22.951Z,6.07
2022-10-28T19:05:49.835Z,5.18
2022-10-28T19:08:16.620Z,5.38
2022-10-28T19:10:43.530Z,5.95
2022-10-28T19:13:10.355Z,5.65
2022-10-28T19:15:42.061Z,5.40
2022-10-28T19:18:09.122Z,5.28
2022-10-28T19:20:35.901Z,4.13
2022-10-28T19:23:02.801Z,4.15
2022-10-28T19:25:29.642Z,3.83
2022-10-28T19:27:58.850Z,3.92
2022-10-28T19:30:25.676Z,3.63
2022-10-28T19:32:52.951Z,4.13
2022-10-28T19:35:20.061Z,3.70
2022-10-28T19:37:46.859Z,3.80
2022-10-28T19:40:13.772Z,3.50
2022-10-28T19:42:40.656Z,4.55
2022-10-28T19:45:08.419Z,3.65
2022-10-28T19:47:35.368Z,4.00
2022-10-28T19:50:02.188Z,3.13
2022-10-28T19:52:29.056Z,3.35
2022-10-28T19:54:55.863Z,3.20
2022-10-28T19:57:22.720Z,3.92
2022-10-28T19:59:49.522Z,2.80
2022-10-28T20:02:16.606Z,3.45
2022-10-28T20:04:43.427Z,3.95
2022-10-28T20:07:10.269Z,3.10
2022-10-28T20:09:37.070Z,3.05
2022-10-28T20:12:04.016Z,3.08
2022-10-28T20:14:31.745Z,2.70
2022-10-28T20:17:06.307Z,3.55
2022-10-28T20:19:33.851Z,3.80
2022-10-28T20:22:00.698Z,4.22
2022-10-28T20:24:27.574Z,3.75
2022-10-28T20:26:54.328Z,3.33
2022-10-28T20:29:21.141Z,3.22
2022-10-28T20:31:47.915Z,4.25
2022-10-28T20:34:14.739Z,3.30
2022-10-28T20:36:45.867Z,3.55
2022-10-28T20:39:15.717Z,3.65
2022-10-28T20:41:44.225Z,4.38
2022-10-28T20:44:11.295Z,3.50
2022-10-28T20:46:38.302Z,3.33
2022-10-28T20:49:05.820Z,3.50
2022-10-28T20:51:33.600Z,3.28
2022-10-28T20:54:01.923Z,3.05
2022-10-28T20:56:31.324Z,3.17
2022-10-28T20:58:58.931Z,3.45
2022-10-28T21:01:28.320Z,2.95
2022-10-28T21:03:56.830Z,3.03
2022-10-28T21:06:24.240Z,2.95
2022-10-28T21:08:53.474Z,3.30
2022-10-28T21:11:22.767Z,3.10
2022-10-28T21:13:55.231Z,3.45
2022-10-28T21:16:22.831Z,3.42
2022-10-28T21:18:50.235Z,3.13
2022-10-28T21:21:18.517Z,3.95
2022-10-28T21:23:45.672Z,2.80
2022-10-28T21:26:13.277Z,3.28
2022-10-28T21:28:41.524Z,3.22
2022-10-28T21:31:13.739Z,3.17
2022-10-28T21:33:42.046Z,2.83
2022-10-28T21:36:14.222Z,3.03
2022-10-28T21:38:41.454Z,3.65
2022-10-28T21:41:19.805Z,4.18
2022-10-28T21:43:51.545Z,3.83
2022-10-28T21:46:20.092Z,4.32
2022-10-28T21:48:47.175Z,3.58
2022-10-28T21:51:15.772Z,3.85
2022-10-28T21:53:43.896Z,4.07
2022-10-28T21:56:18.497Z,3.67
2022-10-28T21:58:49.636Z,3.60
2022-10-28T22:01:22.217Z,5.10
2022-10-28T22:03:50.266Z,3.70
2022-10-28T22:06:17.440Z,3.85
2022-10-28T22:08:44.509Z,3.47
2022-10-28T22:11:16.918Z,3.30
2022-10-28T22:13:44.447Z,3.70
2022-10-28T22:16:15.935Z,3.80
2022-10-28T22:18:44.075Z,4.15
2022-10-28T22:21:14.620Z,3.60
2022-10-28T22:23:42.058Z,3.38
2022-10-28T22:26:13.659Z,3.47
2022-10-28T22:28:40.898Z,4.28
2022-10-28T22:31:10.134Z,4.40
2022-10-28T22:33:37.753Z,4.30
2022-10-28T22:36:19.803Z,3.90
2022-10-28T22:38:47.248Z,3.70
2022-10-28T22:41:18.673Z,3.55
2022-10-28T22:43:51.202Z,4.05
2022-10-28T22:46:18.547Z,3.35
2022-10-28T22:48:46.178Z,3.58
2022-10-28T22:51:13.551Z,4.60
2022-10-28T22:53:41.024Z,3.95
2022-10-28T22:56:10.885Z,4.57
2022-10-28T22:58:37.707Z,4.57
2022-10-28T23:01:10.238Z,4.25
2022-10-28T23:03:46.166Z,4.20
2022-10-28T23:06:15.365Z,4.53
2022-10-28T23:08:44.777Z,4.22
2022-10-28T23:11:12.835Z,4.35
2022-10-28T23:13:39.920Z,4.63
2022-10-28T23:16:09.303Z,4.80
2022-10-28T23:18:36.775Z,4.85
2022-10-28T23:21:15.383Z,4.35
2022-10-28T23:23:42.964Z,4.20
2022-10-28T23:26:11.329Z,4.47
2022-10-28T23:28:38.168Z,5.38
2022-10-28T23:31:06.410Z,5.53
2022-10-28T23:33:34.556Z,5.00
2022-10-28T23:36:06.230Z,4.97
2022-10-28T23:38:33.281Z,5.38
2022-10-28T23:41:13.744Z,4.88
2022-10-28T23:43:41.711Z,5.30
2022-10-28T23:46:08.784Z,5.90
2022-10-28T23:48:35.659Z,5.35
2022-10-28T23:51:02.446Z,5.20
2022-10-28T23:53:30.669Z,4.60
2022-10-28T23:55:57.931Z,5.20
2022-10-28T23:58:24.849Z,5.55
